createdAt,value
2018-03-14T00:00:59.472Z,6.2
2018-03-14T00:02:01.084Z,6.3
2018-03-14T00:03:02.691Z,6.3
2018-03-14T00:04:04.305Z,6.2
2018-03-14T00:05:05.911Z,6.3
2018-03-14T00:06:07.519Z,6.3
2018-03-14T00:07:09.135Z,6.3
2018-03-14T00:08:10.749Z,6.4
2018-03-14T00:09:12.354Z,6.4
2018-03-14T00:10:13.963Z,6.3
2018-03-14T00:11:15.574Z,6.4
2018-03-14T00:12:17.183Z,6.5
2018-03-14T00:13:18.789Z,6.4
2018-03-14T00:14:20.398Z,6.3
2018-03-14T00:15:22.018Z,6.3
2018-03-14T00:16:23.625Z,6.4
2018-03-14T00:17:25.235Z,6.2
2018-03-14T00:18:26.843Z,6.3
2018-03-14T00:19:28.459Z,6.3
2018-03-14T00:20:30.066Z,6.3
2018-03-14T00:21:31.677Z,6.2
2018-03-14T00:22:33.287Z,6.2
2018-03-14T00:23:34.899Z,6.2
2018-03-14T00:24:36.511Z,6.2
2018-03-14T00:25:38.114Z,6.3
2018-03-14T00:26:39.731Z,6.2
2018-03-14T00:27:41.331Z,6.3
2018-03-14T00:28:42.939Z,6.2
2018-03-14T00:29:44.550Z,6.2
2018-03-14T00:30:46.156Z,6.4
2018-03-14T00:31:47.777Z,6.2
2018-03-14T00:32:49.372Z,6.2
2018-03-14T00:33:50.986Z,6.3
2018-03-14T00:34:52.591Z,6.3
2018-03-14T00:35:54.203Z,6.4
2018-03-14T00:36:55.819Z,6.2
2018-03-14T00:37:57.428Z,6.2
2018-03-14T00:38:59.048Z,6.3
2018-03-14T00:40:00.652Z,6.2
2018-03-14T00:41:02.263Z,6.3
2018-03-14T00:42:03.867Z,6.3
2018-03-14T00:43:05.474Z,6.3
2018-03-14T00:44:07.087Z,6.3
2018-03-14T00:45:08.698Z,6.3
2018-03-14T00:46:10.306Z,6.2
2018-03-14T00:47:11.917Z,6.1
2018-03-14T00:48:13.523Z,6.1
2018-03-14T00:49:15.137Z,6.1
2018-03-14T00:50:16.744Z,6.2
2018-03-14T00:51:18.359Z,6.3
2018-03-14T00:52:19.966Z,6.3
2018-03-14T00:53:21.580Z,6.2
2018-03-14T00:54:23.187Z,6.3
2018-03-14T00:55:24.841Z,6.3
2018-03-14T00:56:26.407Z,6.3
2018-03-14T00:57:28.018Z,6.2
2018-03-14T00:58:29.623Z,6.1
2018-03-14T00:59:31.233Z,6.1
2018-03-14T01:00:32.844Z,6.0
2018-03-14T01:01:34.449Z,6.0
2018-03-14T01:02:36.061Z,5.9
2018-03-14T01:03:37.671Z,6.0
2018-03-14T01:04:39.278Z,6.0
2018-03-14T01:05:40.884Z,5.9
2018-03-14T01:06:42.497Z,5.9
2018-03-14T01:07:44.108Z,5.8
2018-03-14T01:08:45.714Z,5.7
2018-03-14T01:09:47.322Z,5.7
2018-03-14T01:10:48.935Z,5.7
2018-03-14T01:11:50.543Z,5.7
2018-03-14T01:12:52.155Z,5.8
2018-03-14T01:13:53.762Z,5.8
2018-03-14T01:14:55.378Z,5.7
2018-03-14T01:15:56.982Z,5.7
2018-03-14T01:16:58.598Z,5.7
2018-03-14T01:18:00.203Z,5.8
2018-03-14T01:19:01.820Z,5.7
2018-03-14T01:20:03.417Z,5.7
2018-03-14T01:21:05.032Z,5.7
2018-03-14T01:22:07.246Z,5.7
2018-03-14T01:23:08.849Z,5.6
2018-03-14T01:24:10.457Z,5.6
2018-03-14T01:25:12.070Z,5.6
2018-03-14T01:26:13.676Z,5.7
2018-03-14T01:27:15.291Z,5.7
2018-03-14T01:28:16.903Z,5.6
2018-03-14T01:29:18.510Z,5.7
2018-03-14T01:30:20.113Z,5.7
2018-03-14T01:31:21.728Z,5.7
2018-03-14T01:32:23.338Z,5.5
2018-03-14T01:33:24.944Z,5.5
2018-03-14T01:34:26.559Z,5.5
2018-03-14T01:35:28.167Z,5.6
2018-03-14T01:36:29.773Z,5.6
2018-03-14T01:37:31.384Z,5.5
2018-03-14T01:38:33.490Z,5.5
2018-03-14T01:39:35.099Z,5.5
2018-03-14T01:40:36.711Z,5.4
2018-03-14T01:41:38.322Z,5.4
2018-03-14T01:42:39.932Z,5.4
2018-03-14T01:43:41.538Z,5.6
2018-03-14T01:44:43.143Z,5.6
2018-03-14T01:45:44.757Z,5.5
2018-03-14T01:46:46.365Z,5.4
2018-03-14T01:47:47.972Z,5.5
2018-03-14T01:48:49.581Z,5.6
2018-03-14T01:49:51.196Z,5.5
2018-03-14T01:50:52.802Z,5.5
2018-03-14T01:51:54.411Z,5.6
2018-03-14T01:52:56.021Z,5.5
2018-03-14T01:53:57.628Z,5.7
2018-03-14T01:54:59.236Z,5.6
2018-03-14T01:56:00.843Z,5.7
2018-03-14T01:57:02.454Z,5.7
2018-03-14T01:58:05.007Z,5.7
2018-03-14T01:59:06.619Z,5.7
2018-03-14T02:00:08.226Z,5.7
2018-03-14T02:15:04.217Z,5.7
2018-03-14T02:16:05.820Z,5.7
2018-03-14T02:17:57.503Z,5.8
2018-03-14T02:18:59.110Z,5.8
2018-03-14T02:20:51.762Z,5.8
2018-03-14T02:21:53.374Z,5.9
2018-03-14T02:23:45.060Z,5.8
2018-03-14T02:24:46.666Z,5.8
2018-03-14T02:26:38.371Z,5.8
2018-03-14T02:27:39.979Z,5.8
2018-03-14T02:29:31.681Z,5.9
2018-03-14T02:30:33.292Z,5.9
2018-03-14T02:32:24.974Z,6.1
2018-03-14T02:33:26.580Z,6.0
2018-03-14T02:35:18.288Z,6.0
2018-03-14T02:36:19.898Z,6.0
2018-03-14T02:38:12.336Z,6.0
2018-03-14T02:39:13.938Z,5.9
2018-03-14T02:41:05.640Z,6.0
2018-03-14T02:42:07.247Z,5.9
2018-03-14T02:43:58.935Z,6.0
2018-03-14T02:45:00.540Z,5.9
2018-03-14T02:46:52.237Z,6.1
2018-03-14T02:47:53.847Z,6.0
2018-03-14T02:49:45.545Z,6.1
2018-03-14T02:50:47.152Z,6.1
2018-03-14T02:52:38.835Z,6.1
2018-03-14T02:53:40.443Z,6.2
2018-03-14T02:55:32.147Z,6.1
2018-03-14T02:56:33.759Z,6.1
2018-03-14T02:58:25.440Z,6.0
2018-03-14T02:59:27.055Z,6.1
2018-03-14T03:01:18.758Z,6.1
2018-03-14T03:02:20.366Z,6.1
2018-03-14T03:04:12.053Z,6.1
2018-03-14T03:05:13.656Z,6.1
2018-03-14T03:07:05.364Z,6.0
2018-03-14T03:08:06.968Z,6.0
2018-03-14T03:09:58.676Z,6.0
2018-03-14T03:11:00.284Z,6.0
2018-03-14T03:12:52.015Z,6.1
2018-03-14T03:13:53.580Z,6.2
2018-03-14T03:15:45.280Z,6.1
2018-03-14T03:16:46.895Z,6.1
2018-03-14T03:18:39.334Z,6.1
2018-03-14T03:19:40.944Z,6.0
2018-03-14T03:21:32.645Z,6.1
2018-03-14T03:22:34.249Z,6.0
2018-03-14T03:24:25.931Z,6.0
2018-03-14T03:25:27.545Z,6.0
2018-03-14T03:27:19.253Z,6.0
2018-03-14T03:28:20.862Z,6.0
2018-03-14T03:30:12.561Z,6.1
2018-03-14T03:31:14.167Z,6.1
2018-03-14T03:33:05.859Z,6.2
2018-03-14T03:34:07.465Z,6.2
2018-03-14T03:35:59.162Z,6.1
2018-03-14T03:37:00.773Z,6.1
2018-03-14T03:38:52.462Z,6.3
2018-03-14T03:39:54.061Z,6.3
2018-03-14T03:41:45.760Z,6.4
2018-03-14T03:42:47.373Z,6.3
2018-03-14T03:44:39.077Z,6.4
2018-03-14T03:45:40.687Z,6.4
2018-03-14T03:47:32.381Z,6.3
2018-03-14T03:48:33.984Z,6.4
2018-03-14T03:50:26.544Z,6.4
2018-03-14T03:51:28.142Z,6.4
2018-03-14T03:53:19.824Z,6.3
2018-03-14T03:54:21.440Z,6.4
2018-03-14T03:56:13.140Z,6.4
2018-03-14T03:57:14.744Z,6.5
2018-03-14T03:59:06.430Z,6.5
2018-03-14T04:00:08.036Z,6.5
2018-03-14T04:01:59.741Z,6.5
2018-03-14T04:03:01.346Z,6.5
2018-03-14T04:04:53.051Z,6.5
2018-03-14T04:05:54.657Z,6.5
2018-03-14T04:07:46.348Z,6.5
2018-03-14T04:08:47.952Z,6.4
2018-03-14T04:10:39.659Z,6.5
2018-03-14T04:11:41.262Z,6.5
2018-03-14T04:13:32.948Z,6.5
2018-03-14T04:14:34.589Z,6.6
2018-03-14T04:16:26.265Z,6.6
2018-03-14T04:17:27.875Z,6.5
2018-03-14T04:19:19.564Z,6.6
2018-03-14T04:20:21.173Z,6.5
2018-03-14T04:22:12.872Z,6.5
2018-03-14T04:23:14.480Z,6.5
2018-03-14T04:25:06.181Z,6.6
2018-03-14T04:26:07.795Z,6.5
2018-03-14T04:27:59.484Z,6.5
2018-03-14T04:29:02.027Z,6.5
2018-03-14T04:30:53.730Z,6.5
2018-03-14T04:31:55.338Z,6.4
2018-03-14T04:33:47.027Z,6.4
2018-03-14T04:34:48.633Z,6.5
2018-03-14T04:36:41.357Z,6.5
2018-03-14T04:37:42.952Z,6.5
2018-03-14T04:39:34.660Z,6.4
2018-03-14T04:40:36.262Z,6.2
2018-03-14T04:42:27.947Z,6.4
2018-03-14T04:43:29.553Z,6.4
2018-03-14T04:45:21.254Z,6.4
2018-03-14T04:46:22.858Z,6.5
2018-03-14T04:48:15.252Z,6.5
2018-03-14T04:49:16.859Z,6.5
2018-03-14T04:51:08.560Z,6.4
2018-03-14T04:52:10.170Z,6.5
2018-03-14T04:54:01.858Z,6.6
2018-03-14T04:55:03.465Z,6.5
2018-03-14T04:56:55.168Z,6.5
2018-03-14T04:57:56.775Z,6.5
2018-03-14T04:59:48.475Z,6.4
2018-03-14T05:00:50.088Z,6.5
2018-03-14T05:02:41.770Z,6.4
2018-03-14T05:03:43.382Z,6.4
2018-03-14T05:05:35.927Z,6.4
2018-03-14T05:06:37.536Z,6.5
2018-03-14T05:08:29.223Z,6.6
2018-03-14T05:09:30.827Z,6.5
2018-03-14T05:11:22.528Z,6.5
2018-03-14T05:12:24.986Z,6.5
2018-03-14T05:14:16.804Z,6.6
2018-03-14T05:15:18.367Z,6.7
2018-03-14T05:17:10.071Z,6.6
2018-03-14T05:18:11.685Z,6.6
2018-03-14T05:20:03.386Z,6.8
2018-03-14T05:21:04.999Z,6.6
2018-03-14T05:22:56.678Z,6.6
2018-03-14T05:23:58.289Z,6.7
2018-03-14T05:25:49.990Z,6.7
2018-03-14T05:26:51.602Z,6.6
2018-03-14T05:28:43.287Z,6.6
2018-03-14T05:29:44.899Z,6.6
2018-03-14T05:31:36.603Z,6.7
2018-03-14T05:32:38.210Z,6.6
2018-03-14T05:34:29.909Z,6.8
2018-03-14T05:35:31.517Z,6.8
2018-03-14T05:37:23.222Z,6.7
2018-03-14T05:38:24.832Z,6.6
2018-03-14T05:40:16.542Z,6.6
2018-03-14T05:41:18.146Z,6.6
2018-03-14T05:43:10.490Z,6.6
2018-03-14T05:44:12.095Z,6.6
2018-03-14T05:46:03.797Z,6.6
2018-03-14T05:47:05.409Z,6.6
2018-03-14T05:48:57.094Z,6.7
2018-03-14T05:49:58.701Z,6.6
2018-03-14T05:51:50.407Z,6.6
2018-03-14T05:52:52.017Z,6.6
2018-03-14T05:54:44.449Z,6.6
2018-03-14T05:55:46.063Z,6.6
2018-03-14T05:57:37.749Z,6.6
2018-03-14T05:58:39.359Z,6.5
2018-03-14T06:00:31.057Z,6.6
2018-03-14T06:01:32.675Z,6.6
2018-03-14T06:03:24.358Z,6.7
2018-03-14T06:04:25.971Z,6.6
2018-03-14T06:06:17.676Z,6.6
2018-03-14T06:07:19.282Z,6.5
2018-03-14T06:09:10.973Z,6.5
2018-03-14T06:10:12.582Z,6.5
2018-03-14T06:12:05.134Z,6.4
2018-03-14T06:13:06.803Z,6.4
2018-03-14T06:14:58.459Z,6.5
2018-03-14T06:16:00.075Z,6.4
2018-03-14T06:17:51.761Z,6.4
2018-03-14T06:18:53.378Z,6.4
2018-03-14T06:20:45.083Z,6.5
2018-03-14T06:21:46.691Z,6.7
2018-03-14T06:23:38.384Z,6.5
2018-03-14T06:24:39.992Z,6.5
2018-03-14T06:26:31.709Z,6.6
2018-03-14T06:27:33.316Z,6.6
2018-03-14T06:29:25.007Z,6.6
2018-03-14T06:30:26.616Z,6.6
2018-03-14T06:32:18.326Z,6.6
2018-03-14T06:33:19.933Z,6.5
2018-03-14T06:35:11.646Z,6.5
2018-03-14T06:36:13.248Z,6.5
2018-03-14T06:38:05.691Z,6.5
2018-03-14T06:39:07.303Z,6.5
2018-03-14T06:40:59.002Z,6.5
2018-03-14T06:42:00.614Z,6.6
2018-03-14T06:43:52.305Z,6.6
2018-03-14T06:44:53.914Z,6.6
2018-03-14T06:46:45.618Z,6.7
2018-03-14T06:47:47.232Z,6.6
2018-03-14T06:49:38.937Z,6.6
2018-03-14T06:50:40.546Z,6.6
2018-03-14T06:52:32.732Z,6.6
2018-03-14T06:53:34.345Z,6.7
2018-03-14T06:54:35.952Z,6.5
2018-03-14T06:55:37.563Z,6.6
2018-03-14T06:56:39.180Z,6.6
2018-03-14T06:57:40.807Z,6.6
2018-03-14T06:58:42.420Z,6.6
2018-03-14T06:59:44.034Z,6.6
2018-03-14T07:00:45.651Z,6.6
2018-03-14T07:01:47.266Z,6.6
2018-03-14T07:02:48.874Z,6.7
2018-03-14T07:03:50.490Z,6.6
2018-03-14T07:04:52.115Z,6.6
2018-03-14T07:05:53.726Z,6.6
2018-03-14T07:06:55.337Z,6.7
2018-03-14T07:07:56.956Z,6.7
2018-03-14T07:08:58.565Z,6.7
2018-03-14T07:10:00.178Z,6.7
2018-03-14T07:11:01.796Z,6.7
2018-03-14T07:12:03.421Z,6.6
2018-03-14T07:13:05.030Z,6.7
2018-03-14T07:14:06.646Z,6.7
2018-03-14T07:15:08.263Z,6.7
2018-03-14T07:16:09.879Z,6.7
2018-03-14T07:17:11.490Z,6.6
2018-03-14T07:18:13.106Z,6.7
2018-03-14T07:19:14.723Z,6.7
2018-03-14T07:20:16.339Z,6.7
2018-03-14T07:21:17.953Z,6.8
2018-03-14T07:22:19.565Z,6.9
2018-03-14T07:23:21.184Z,7.0
2018-03-14T07:24:22.803Z,7.0
2018-03-14T07:25:24.412Z,6.9
2018-03-14T07:26:26.033Z,6.8
2018-03-14T07:27:27.646Z,6.9
2018-03-14T07:28:29.267Z,6.8
2018-03-14T07:29:30.872Z,6.9
2018-03-14T07:30:32.489Z,6.8
2018-03-14T07:31:34.101Z,6.9
2018-03-14T07:32:35.721Z,6.9
2018-03-14T07:33:37.333Z,7.0
2018-03-14T07:34:38.957Z,7.2
2018-03-14T07:35:40.568Z,7.2
2018-03-14T07:36:42.187Z,7.2
2018-03-14T07:37:43.796Z,7.2
2018-03-14T07:38:45.416Z,7.3
2018-03-14T07:39:47.027Z,7.2
2018-03-14T07:40:48.640Z,7.2
2018-03-14T07:41:50.262Z,7.3
2018-03-14T07:42:51.880Z,7.3
2018-03-14T07:43:53.493Z,7.4
2018-03-14T07:44:55.107Z,7.5
2018-03-14T07:45:56.724Z,7.6
2018-03-14T07:46:58.337Z,7.5
2018-03-14T07:47:59.958Z,7.8
2018-03-14T07:49:01.568Z,7.8
2018-03-14T07:50:03.190Z,7.8
2018-03-14T07:51:04.801Z,8.0
2018-03-14T07:52:06.420Z,8.0
2018-03-14T07:53:08.898Z,8.0
2018-03-14T07:54:10.519Z,8.1
2018-03-14T07:55:12.151Z,8.2
2018-03-14T07:56:13.752Z,8.4
2018-03-14T07:57:15.370Z,8.4
2018-03-14T07:58:16.984Z,8.5
2018-03-14T07:59:18.598Z,8.5
2018-03-14T08:00:20.219Z,8.7
2018-03-14T08:01:21.833Z,8.7
2018-03-14T08:02:23.448Z,8.8
2018-03-14T08:03:25.066Z,8.7
2018-03-14T08:04:26.689Z,8.7
2018-03-14T08:05:28.299Z,8.7
2018-03-14T08:06:29.920Z,8.8
2018-03-14T08:07:31.537Z,9.0
2018-03-14T08:08:33.151Z,9.0
2018-03-14T08:09:34.769Z,9.1
2018-03-14T08:10:36.394Z,9.1
2018-03-14T08:11:38.010Z,9.1
2018-03-14T08:12:39.620Z,9.2
2018-03-14T08:13:41.411Z,9.2
2018-03-14T08:14:42.862Z,9.2
2018-03-14T08:15:44.472Z,9.3
2018-03-14T08:16:46.089Z,9.2
2018-03-14T08:17:47.714Z,9.3
2018-03-14T08:18:49.329Z,9.2
2018-03-14T08:19:50.951Z,9.3
2018-03-14T08:20:52.560Z,9.2
2018-03-14T08:21:54.182Z,9.3
2018-03-14T08:22:55.796Z,9.4
2018-03-14T08:23:57.409Z,9.4
2018-03-14T08:24:59.033Z,9.5
2018-03-14T08:26:00.700Z,9.6
2018-03-14T08:27:02.264Z,9.4
2018-03-14T08:28:03.876Z,9.4
2018-03-14T08:29:05.658Z,9.5
2018-03-14T08:30:07.280Z,9.5
2018-03-14T08:31:08.894Z,9.7
2018-03-14T08:32:10.508Z,9.7
2018-03-14T08:33:12.135Z,9.7
2018-03-14T08:34:13.741Z,9.7
2018-03-14T08:35:15.431Z,9.8
2018-03-14T08:36:17.045Z,10.1
2018-03-14T08:37:18.671Z,11.6
2018-03-14T08:38:20.294Z,11.3
2018-03-14T08:39:21.913Z,11.0
2018-03-14T08:40:23.540Z,11.0
2018-03-14T08:41:25.156Z,10.9
2018-03-14T08:42:26.780Z,11.4
2018-03-14T08:43:28.396Z,11.7
2018-03-14T08:44:30.026Z,11.5
2018-03-14T08:45:31.637Z,11.3
2018-03-14T08:46:33.262Z,11.4
2018-03-14T08:47:34.881Z,11.5
2018-03-14T08:48:38.939Z,11.5
2018-03-14T08:49:40.502Z,11.5
2018-03-14T08:50:42.124Z,11.4
2018-03-14T08:51:43.742Z,11.5
2018-03-14T08:52:45.361Z,11.5
2018-03-14T08:53:46.986Z,11.5
2018-03-14T08:54:48.605Z,11.6
2018-03-14T08:55:50.277Z,11.5
2018-03-14T08:56:51.844Z,11.5
2018-03-14T08:57:53.465Z,11.4
2018-03-14T08:58:55.081Z,11.3
2018-03-14T08:59:56.712Z,11.3
2018-03-14T09:00:58.325Z,11.3
2018-03-14T09:01:59.950Z,11.3
2018-03-14T09:03:01.572Z,11.3
2018-03-14T09:04:03.182Z,11.2
2018-03-14T09:05:04.824Z,11.0
2018-03-14T09:06:06.443Z,11.0
2018-03-14T09:07:08.082Z,10.8
2018-03-14T09:08:09.703Z,10.7
2018-03-14T09:09:11.319Z,10.8
2018-03-14T09:10:12.943Z,10.8
2018-03-14T09:11:14.556Z,10.7
2018-03-14T09:12:16.179Z,10.7
2018-03-14T09:13:17.798Z,10.5
2018-03-14T09:14:19.416Z,10.7
2018-03-14T09:15:21.037Z,10.5
2018-03-14T09:16:22.662Z,10.4
2018-03-14T09:17:24.296Z,10.5
2018-03-14T09:18:27.775Z,10.5
2018-03-14T09:19:29.359Z,10.6
2018-03-14T09:20:30.977Z,10.9
2018-03-14T09:21:32.705Z,11.7
2018-03-14T09:22:34.360Z,12.2
2018-03-14T09:23:36.014Z,12.5
2018-03-14T09:24:37.632Z,12.5
2018-03-14T09:25:39.262Z,12.4
2018-03-14T09:26:40.887Z,12.6
2018-03-14T09:27:42.506Z,12.8
2018-03-14T09:28:44.125Z,12.9
2018-03-14T09:29:45.749Z,13.0
2018-03-14T09:30:47.372Z,12.9
2018-03-14T09:31:49.009Z,12.9
2018-03-14T09:32:50.610Z,13.2
2018-03-14T09:33:52.791Z,13.3
2018-03-14T09:34:54.416Z,13.4
2018-03-14T09:35:56.037Z,13.2
2018-03-14T09:36:57.659Z,12.9
2018-03-14T09:37:59.277Z,13.0
2018-03-14T09:39:00.904Z,13.0
2018-03-14T09:40:02.514Z,12.9
2018-03-14T09:41:04.138Z,12.9
2018-03-14T09:42:05.758Z,13.0
2018-03-14T09:43:07.384Z,13.0
2018-03-14T09:44:09.008Z,13.2
2018-03-14T09:45:10.628Z,13.8
2018-03-14T09:46:12.256Z,15.0
2018-03-14T09:47:13.869Z,14.9
2018-03-14T09:48:15.496Z,14.7
2018-03-14T09:49:17.111Z,14.6
2018-03-14T09:50:18.737Z,14.6
2018-03-14T09:51:20.356Z,14.6
2018-03-14T09:52:21.979Z,14.4
2018-03-14T09:53:23.595Z,14.4
2018-03-14T09:54:25.215Z,14.2
2018-03-14T09:55:26.839Z,14.1
2018-03-14T09:56:28.464Z,14.0
2018-03-14T09:57:30.080Z,13.8
2018-03-14T09:58:31.701Z,13.7
2018-03-14T09:59:33.327Z,13.5
2018-03-14T10:00:34.945Z,13.5
2018-03-14T10:01:36.566Z,13.4
2018-03-14T10:02:38.184Z,13.4
2018-03-14T10:03:39.809Z,13.5
2018-03-14T10:04:41.439Z,13.4
2018-03-14T10:05:43.068Z,13.3
2018-03-14T10:06:44.684Z,13.1
2018-03-14T10:07:46.305Z,13.1
2018-03-14T10:08:47.925Z,12.9
2018-03-14T10:09:49.546Z,12.9
2018-03-14T10:10:51.161Z,12.9
2018-03-14T10:11:52.787Z,12.7
2018-03-14T10:12:54.407Z,12.8
2018-03-14T10:13:56.092Z,12.7
2018-03-14T10:14:57.710Z,12.6
2018-03-14T10:15:59.333Z,12.6
2018-03-14T10:17:00.961Z,12.6
2018-03-14T10:18:02.574Z,12.6
2018-03-14T10:19:04.263Z,12.7
2018-03-14T10:20:05.858Z,12.8
2018-03-14T10:21:07.484Z,12.9
2018-03-14T10:22:09.100Z,13.0
2018-03-14T10:23:10.722Z,14.0
2018-03-14T10:24:12.347Z,14.5
2018-03-14T10:25:13.965Z,15.1
2018-03-14T10:26:15.593Z,16.3
2018-03-14T10:27:17.216Z,16.6
2018-03-14T10:28:18.840Z,16.6
2018-03-14T10:29:20.478Z,16.6
2018-03-14T10:30:22.096Z,16.7
2018-03-14T10:31:23.724Z,16.8
2018-03-14T10:32:25.345Z,16.5
2018-03-14T10:33:26.972Z,16.6
2018-03-14T10:34:28.591Z,17.0
2018-03-14T10:35:30.223Z,18.0
2018-03-14T10:36:31.847Z,18.7
2018-03-14T10:37:33.468Z,19.6
2018-03-14T10:38:35.096Z,20.0
2018-03-14T10:39:36.749Z,20.4
2018-03-14T10:40:38.372Z,21.1
2018-03-14T10:41:40.006Z,21.1
2018-03-14T10:42:41.628Z,21.9
2018-03-14T10:43:43.255Z,22.2
2018-03-14T10:44:44.885Z,22.5
2018-03-14T10:45:46.507Z,22.5
2018-03-14T10:46:48.140Z,22.4
2018-03-14T10:47:49.767Z,22.4
2018-03-14T10:48:51.401Z,22.2
2018-03-14T10:49:53.025Z,21.9
2018-03-14T10:50:54.656Z,21.7
2018-03-14T10:51:56.283Z,21.7
2018-03-14T10:52:57.913Z,21.6
2018-03-14T10:53:59.538Z,21.2
2018-03-14T10:55:01.173Z,20.7
2018-03-14T10:56:02.801Z,20.2
2018-03-14T10:57:04.423Z,19.8
2018-03-14T10:58:06.042Z,19.5
2018-03-14T10:59:07.675Z,19.4
2018-03-14T11:00:09.296Z,19.3
2018-03-14T11:01:10.923Z,19.3
2018-03-14T11:02:12.554Z,18.9
2018-03-14T11:03:14.176Z,18.7
2018-03-14T11:04:15.802Z,18.7
2018-03-14T11:05:17.427Z,18.6
2018-03-14T11:06:19.054Z,18.7
2018-03-14T11:07:20.675Z,18.7
2018-03-14T11:08:22.300Z,19.0
2018-03-14T11:09:23.931Z,18.8
2018-03-14T11:10:25.556Z,19.1
2018-03-14T11:11:27.182Z,19.6
2018-03-14T11:12:28.803Z,19.8
2018-03-14T11:13:30.436Z,19.7
2018-03-14T11:14:33.015Z,19.3
2018-03-14T11:15:34.661Z,19.4
2018-03-14T11:16:36.267Z,19.5
2018-03-14T11:17:37.897Z,20.0
2018-03-14T11:18:39.532Z,19.5
2018-03-14T11:19:41.180Z,19.4
2018-03-14T11:20:42.799Z,19.2
2018-03-14T11:21:44.428Z,18.9
2018-03-14T11:22:46.049Z,18.9
2018-03-14T11:23:47.682Z,19.2
2018-03-14T11:24:49.311Z,19.2
2018-03-14T11:25:50.934Z,19.2
2018-03-14T11:26:52.557Z,19.5
2018-03-14T11:27:54.184Z,19.6
2018-03-14T11:28:55.811Z,20.6
2018-03-14T11:29:58.079Z,21.4
2018-03-14T11:30:59.702Z,22.2
2018-03-14T11:32:01.335Z,22.8
2018-03-14T11:33:02.958Z,23.3
2018-03-14T11:34:04.583Z,23.7
2018-03-14T11:35:06.214Z,23.6
2018-03-14T11:36:07.835Z,23.5
2018-03-14T11:37:09.463Z,23.5
2018-03-14T11:38:11.090Z,23.7
2018-03-14T11:39:12.721Z,23.8
2018-03-14T11:40:14.347Z,24.1
2018-03-14T11:41:15.973Z,23.8
2018-03-14T11:42:17.666Z,23.3
2018-03-14T11:43:19.265Z,23.0
2018-03-14T11:44:20.889Z,22.7
2018-03-14T11:45:22.516Z,22.5
2018-03-14T11:46:24.770Z,22.1
2018-03-14T11:47:26.401Z,22.0
2018-03-14T11:48:28.023Z,22.5
2018-03-14T11:49:29.653Z,23.0
2018-03-14T11:50:31.280Z,23.3
2018-03-14T11:51:33.376Z,23.1
2018-03-14T11:52:35.023Z,22.9
2018-03-14T11:53:36.692Z,22.6
2018-03-14T11:54:38.306Z,21.8
2018-03-14T11:55:39.939Z,21.0
2018-03-14T11:56:41.566Z,20.6
2018-03-14T11:57:43.188Z,20.7
2018-03-14T11:58:44.818Z,21.6
2018-03-14T11:59:46.446Z,22.1
2018-03-14T12:00:48.071Z,22.8
2018-03-14T12:01:49.696Z,23.2
2018-03-14T12:02:51.327Z,23.6
2018-03-14T12:03:52.950Z,23.7
2018-03-14T12:04:54.573Z,23.9
2018-03-14T12:05:56.199Z,23.7
2018-03-14T12:06:57.822Z,23.4
2018-03-14T12:07:59.456Z,23.1
2018-03-14T12:09:01.085Z,23.1
2018-03-14T12:10:02.706Z,23.0
2018-03-14T12:11:04.333Z,23.2
2018-03-14T12:12:05.962Z,23.8
2018-03-14T12:13:07.585Z,23.9
2018-03-14T12:14:09.217Z,23.9
2018-03-14T12:15:10.845Z,23.9
2018-03-14T12:16:12.474Z,24.2
2018-03-14T12:17:14.093Z,24.4
2018-03-14T12:18:15.723Z,24.8
2018-03-14T12:19:17.343Z,24.9
2018-03-14T12:20:18.973Z,24.8
2018-03-14T12:21:20.595Z,24.9
2018-03-14T12:22:22.221Z,24.6
2018-03-14T12:23:23.844Z,24.3
2018-03-14T12:24:25.477Z,24.5
2018-03-14T12:25:27.103Z,24.7
2018-03-14T12:26:28.726Z,24.6
2018-03-14T12:27:30.355Z,24.9
2018-03-14T12:28:31.980Z,25.0
2018-03-14T12:29:33.602Z,25.5
2018-03-14T12:30:35.230Z,25.5
2018-03-14T12:31:36.854Z,25.8
2018-03-14T12:32:38.483Z,26.0
2018-03-14T12:33:40.100Z,25.9
2018-03-14T12:34:41.786Z,25.6
2018-03-14T12:35:43.382Z,25.2
2018-03-14T12:36:45.003Z,25.1
2018-03-14T12:37:46.626Z,24.4
2018-03-14T12:38:48.244Z,24.0
2018-03-14T12:39:49.868Z,23.5
2018-03-14T12:40:51.494Z,23.3
2018-03-14T12:41:53.113Z,23.1
2018-03-14T12:42:54.737Z,22.9
2018-03-14T12:43:56.364Z,22.7
2018-03-14T12:44:57.986Z,22.4
2018-03-14T12:45:59.610Z,22.1
2018-03-14T12:47:01.227Z,21.7
2018-03-14T12:48:02.853Z,21.6
2018-03-14T12:49:04.472Z,21.6
2018-03-14T12:50:06.098Z,21.2
2018-03-14T12:51:07.719Z,20.6
2018-03-14T12:52:09.346Z,20.2
2018-03-14T12:53:10.972Z,20.1
2018-03-14T12:54:12.593Z,19.8
2018-03-14T12:55:14.213Z,19.6
2018-03-14T12:56:15.855Z,19.4
2018-03-14T12:57:17.461Z,19.4
2018-03-14T12:58:19.089Z,19.2
2018-03-14T12:59:20.711Z,19.4
2018-03-14T13:00:22.329Z,19.4
2018-03-14T13:01:23.953Z,19.1
2018-03-14T13:02:25.618Z,18.8
2018-03-14T13:03:27.200Z,18.6
2018-03-14T13:04:28.820Z,18.3
2018-03-14T13:05:30.448Z,18.1
2018-03-14T13:06:32.071Z,17.9
2018-03-14T13:07:33.691Z,17.7
2018-03-14T13:08:35.310Z,17.6
2018-03-14T13:09:36.933Z,17.4
2018-03-14T13:10:38.556Z,17.3
2018-03-14T13:11:40.189Z,17.0
2018-03-14T13:12:41.797Z,16.9
2018-03-14T13:13:43.426Z,16.8
2018-03-14T13:14:45.045Z,16.7
2018-03-14T13:15:46.664Z,16.6
2018-03-14T13:16:48.288Z,16.9
2018-03-14T13:17:49.914Z,17.3
2018-03-14T13:18:51.532Z,17.4
2018-03-14T13:19:53.156Z,17.3
2018-03-14T13:20:54.778Z,17.5
2018-03-14T13:21:56.399Z,17.1
2018-03-14T13:22:58.018Z,17.0
2018-03-14T13:23:59.635Z,16.9
2018-03-14T13:25:01.261Z,16.9
2018-03-14T13:26:02.885Z,16.9
2018-03-14T13:27:04.502Z,16.8
2018-03-14T13:28:06.126Z,16.9
2018-03-14T13:29:07.749Z,17.4
2018-03-14T13:30:09.367Z,17.5
2018-03-14T13:31:10.990Z,17.9
2018-03-14T13:32:12.607Z,18.2
2018-03-14T13:33:14.232Z,18.5
2018-03-14T13:34:15.929Z,18.5
2018-03-14T13:35:17.551Z,18.3
2018-03-14T13:36:19.177Z,18.2
2018-03-14T13:37:20.796Z,18.4
2018-03-14T13:38:22.412Z,18.6
2018-03-14T13:39:24.036Z,18.7
2018-03-14T13:40:25.655Z,18.4
2018-03-14T13:41:27.281Z,18.6
2018-03-14T13:42:28.904Z,18.6
2018-03-14T13:43:30.538Z,18.8
2018-03-14T13:44:32.152Z,18.6
2018-03-14T13:45:33.776Z,18.6
2018-03-14T13:46:35.400Z,18.7
2018-03-14T13:47:37.016Z,18.7
2018-03-14T13:48:38.637Z,18.8
2018-03-14T13:49:40.265Z,19.0
2018-03-14T13:50:41.884Z,19.0
2018-03-14T13:51:43.501Z,19.2
2018-03-14T13:52:45.117Z,19.4
2018-03-14T13:53:46.743Z,19.1
2018-03-14T13:54:48.367Z,19.0
2018-03-14T13:55:49.983Z,18.9
2018-03-14T13:56:51.603Z,19.0
2018-03-14T13:57:53.224Z,19.1
2018-03-14T13:58:54.842Z,19.1
2018-03-14T13:59:56.463Z,19.2
2018-03-14T14:00:58.078Z,19.2
2018-03-14T14:01:59.702Z,19.4
2018-03-14T14:03:01.328Z,19.4
2018-03-14T14:04:02.944Z,19.4
2018-03-14T14:05:04.560Z,19.4
2018-03-14T14:06:06.184Z,19.3
2018-03-14T14:07:07.807Z,19.4
2018-03-14T14:08:09.422Z,19.4
2018-03-14T14:09:11.040Z,19.4
2018-03-14T14:10:12.667Z,19.4
2018-03-14T14:11:14.291Z,19.6
2018-03-14T14:12:15.909Z,19.5
2018-03-14T14:13:17.593Z,19.6
2018-03-14T14:14:19.154Z,19.6
2018-03-14T14:15:20.772Z,19.9
2018-03-14T14:16:22.393Z,19.9
2018-03-14T14:17:24.017Z,19.9
2018-03-14T14:18:25.634Z,20.2
2018-03-14T14:19:27.258Z,20.3
2018-03-14T14:20:28.870Z,20.4
2018-03-14T14:21:30.488Z,20.5
2018-03-14T14:22:32.109Z,20.4
2018-03-14T14:23:33.731Z,20.5
2018-03-14T14:24:35.351Z,20.5
2018-03-14T14:25:36.990Z,20.5
2018-03-14T14:26:38.592Z,20.5
2018-03-14T14:27:40.222Z,20.4
2018-03-14T14:28:41.833Z,20.6
2018-03-14T14:29:43.459Z,20.6
2018-03-14T14:30:45.075Z,20.8
2018-03-14T14:31:46.695Z,20.8
2018-03-14T14:32:48.321Z,20.8
2018-03-14T14:33:49.936Z,20.7
2018-03-14T14:34:51.560Z,20.6
2018-03-14T14:35:53.175Z,20.5
2018-03-14T14:36:54.800Z,20.6
2018-03-14T14:37:56.419Z,20.5
2018-03-14T14:38:58.042Z,20.7
2018-03-14T14:39:59.665Z,20.8
2018-03-14T14:41:01.281Z,20.8
2018-03-14T14:42:02.905Z,20.9
2018-03-14T14:43:04.520Z,20.9
2018-03-14T14:44:06.141Z,20.9
2018-03-14T14:45:07.761Z,21.0
2018-03-14T14:46:09.385Z,20.9
2018-03-14T14:47:11.003Z,20.9
2018-03-14T14:48:13.287Z,20.9
2018-03-14T14:49:14.188Z,21.0
2018-03-14T14:50:15.808Z,21.1
2018-03-14T14:51:18.110Z,21.2
2018-03-14T14:52:19.730Z,21.1
2018-03-14T14:53:21.348Z,21.1
2018-03-14T14:54:22.971Z,21.0
2018-03-14T14:55:24.593Z,21.0
2018-03-14T14:56:26.209Z,21.0
2018-03-14T14:57:27.830Z,20.5
2018-03-14T14:58:29.448Z,20.5
2018-03-14T14:59:31.075Z,20.5
2018-03-14T15:00:32.694Z,20.4
2018-03-14T15:01:34.320Z,20.5
2018-03-14T15:02:35.934Z,20.6
2018-03-14T15:03:37.556Z,20.5
2018-03-14T15:04:39.177Z,20.5
2018-03-14T15:05:40.796Z,20.5
2018-03-14T15:06:42.418Z,20.4
2018-03-14T15:07:44.041Z,19.9
2018-03-14T15:08:45.667Z,19.7
2018-03-14T15:09:47.279Z,19.5
2018-03-14T15:10:48.902Z,19.6
2018-03-14T15:11:50.523Z,19.6
2018-03-14T15:12:52.140Z,19.6
2018-03-14T15:13:53.766Z,19.7
2018-03-14T15:14:55.391Z,19.7
2018-03-14T15:15:57.010Z,19.6
2018-03-14T15:16:58.626Z,19.6
2018-03-14T15:18:00.253Z,19.8
2018-03-14T15:19:01.905Z,19.8
2018-03-14T15:20:03.491Z,19.9
2018-03-14T15:21:05.180Z,19.8
2018-03-14T15:22:06.734Z,19.4
2018-03-14T15:23:08.360Z,19.2
2018-03-14T15:24:09.974Z,19.3
2018-03-14T15:25:11.594Z,19.3
2018-03-14T15:26:13.211Z,19.5
2018-03-14T15:27:14.836Z,19.2
2018-03-14T15:28:16.455Z,19.2
2018-03-14T15:29:18.081Z,19.1